Time;durP1;ratioP1;P1;durP2;ratioP2;P2;SDS_P1;SDS_P2;PMS_P1;PMS_P2;Temp;Humidity;BMP_temperature;BMP_pressure;BME280_temperature;BME280_humidity;BME280_pressure;Samples;Min_cycle;Max_cycle;Signal;HPM_P1;HPM_P2
2023/05/29 00:00:30;;;;;;;6.90;3.15;;;;;;;16.26;62.33;94689.53;5004162;28;20245;-73
2023/05/29 00:02:55;;;;;;;3.80;3.10;;;;;;;16.25;62.08;94691.38;5006978;28;20219;-73
2023/05/29 00:05:21;;;;;;;3.95;3.17;;;;;;;16.25;62.15;94688.72;5006490;28;20209;-73
2023/05/29 00:07:48;;;;;;;3.67;2.80;;;;;;;16.22;62.47;94686.41;5005206;28;20249;-73
2023/05/29 00:10:13;;;;;;;4.10;3.03;;;;;;;16.20;62.69;94691.13;5005411;28;20218;-73
2023/05/29 00:12:39;;;;;;;4.63;3.03;;;;;;;16.18;62.72;94681.72;5003185;28;20215;-73
2023/05/29 00:15:05;;;;;;;3.10;2.72;;;;;;;16.11;62.80;94686.97;5004382;28;20280;-72
2023/05/29 00:17:32;;;;;;;3.80;3.10;;;;;;;16.12;62.74;94691.28;5009259;28;20179;-73
2023/05/29 00:19:58;;;;;;;3.55;2.72;;;;;;;16.04;63.29;94696.72;5010651;28;20204;-73
2023/05/29 00:22:25;;;;;;;4.25;2.95;;;;;;;16.09;63.39;94699.59;5006866;28;20214;-73
2023/05/29 00:24:50;;;;;;;3.55;2.65;;;;;;;16.00;63.79;94696.28;5011023;28;20221;-74
2023/05/29 00:27:16;;;;;;;4.05;2.92;;;;;;;15.96;63.59;94699.50;5008701;28;20226;-72
2023/05/29 00:29:41;;;;;;;3.33;2.85;;;;;;;15.94;63.79;94702.34;5006503;28;20914;-73
2023/05/29 00:32:07;;;;;;;2.63;2.40;;;;;;;15.91;63.96;94696.63;5002869;28;20180;-73
2023/05/29 00:34:32;;;;;;;3.15;2.85;;;;;;;15.94;63.61;94693.59;5006683;28;20338;-71
2023/05/29 00:36:58;;;;;;;3.03;2.72;;;;;;;15.93;63.40;94689.28;5008816;28;20289;-71
2023/05/29 00:39:23;;;;;;;4.18;3.13;;;;;;;15.88;63.78;94688.03;5006395;28;20218;-70
2023/05/29 00:41:51;;;;;;;3.25;2.65;;;;;;;15.96;63.44;94687.09;5008177;28;20223;-71
2023/05/29 00:44:21;;;;;;;2.95;2.65;;;;;;;15.93;63.33;94695.44;5007688;28;20195;-68
2023/05/29 00:46:49;;;;;;;3.50;2.80;;;;;;;15.85;63.31;94696.38;5003801;28;20179;-68
2023/05/29 00:49:16;;;;;;;3.53;2.90;;;;;;;15.81;63.37;94692.47;5004934;28;20218;-68
2023/05/29 00:51:43;;;;;;;3.28;2.97;;;;;;;15.79;63.73;94685.72;5007883;28;20296;-73
2023/05/29 00:54:12;;;;;;;3.92;2.90;;;;;;;15.72;64.00;94683.03;5007328;28;21136;-68
2023/05/29 00:56:42;;;;;;;5.43;2.83;;;;;;;15.70;64.09;94679.75;5009381;28;20307;-69
2023/05/29 00:59:08;;;;;;;3.65;2.50;;;;;;;15.70;64.12;94674.44;5008640;28;20222;-68
2023/05/29 01:01:35;;;;;;;3.83;3.00;;;;;;;15.70;64.04;94685.03;5006114;28;20258;-68
2023/05/29 01:04:03;;;;;;;4.20;3.20;;;;;;;15.77;63.98;94680.63;5008391;28;20215;-68
2023/05/29 01:06:29;;;;;;;3.28;2.83;;;;;;;15.86;63.48;94673.34;5006742;28;20229;-68
2023/05/29 01:08:55;;;;;;;3.47;2.72;;;;;;;15.75;63.77;94677.34;5008496;28;20585;-68
2023/05/29 01:12:00;;;;;;;3.83;2.92;;;;;;;15.75;64.14;94676.53;5009081;28;20186;-68
2023/05/29 01:14:42;;;;;;;3.03;2.72;;;;;;;15.61;64.54;94680.84;4948899;28;20233;-68
2023/05/29 01:17:31;;;;;;;4.65;3.35;;;;;;;15.55;65.12;94681.59;4954134;28;20280;-68
2023/05/29 01:20:15;;;;;;;3.95;3.03;;;;;;;15.58;65.25;94683.88;4953531;28;20737;-69
2023/05/29 01:23:11;;;;;;;2.72;2.45;;;;;;;15.51;64.89;94683.00;4943216;28;20707;-73
2023/05/29 01:26:07;;;;;;;3.08;2.75;;;;;;;15.47;65.15;94689.69;4948863;28;20225;-73
2023/05/29 01:28:47;;;;;;;4.68;3.13;;;;;;;15.33;65.76;94691.41;4967193;28;20251;-69
2023/05/29 01:31:17;;;;;;;3.22;2.92;;;;;;;15.38;65.70;94689.81;4951899;28;20782;-69
2023/05/29 01:33:51;;;;;;;4.72;3.30;;;;;;;15.41;65.49;94686.78;4950156;28;20247;-69
2023/05/29 01:36:16;;;;;;;3.47;2.97;;;;;;;15.31;65.98;94691.56;4952282;28;20216;-72
2023/05/29 01:38:42;;;;;;;3.45;3.03;;;;;;;15.30;65.95;94684.66;4951480;28;20785;-73
2023/05/29 01:41:07;;;;;;;4.10;3.10;;;;;;;15.34;65.75;94679.78;4963797;28;20204;-68
2023/05/29 01:43:33;;;;;;;5.15;3.47;;;;;;;15.32;66.02;94685.28;4950847;28;20216;-68
2023/05/29 01:45:59;;;;;;;4.15;3.30;;;;;;;15.24;66.35;94682.75;4955873;28;20282;-69
2023/05/29 01:48:25;;;;;;;3.40;2.80;;;;;;;15.27;66.32;94682.38;4953792;28;20302;-72
2023/05/29 01:50:51;;;;;;;3.28;2.97;;;;;;;15.31;65.80;94680.16;4983635;28;20587;-73
2023/05/29 01:53:16;;;;;;;4.32;2.78;;;;;;;15.29;65.79;94688.31;5006577;28;20221;-74
2023/05/29 01:55:42;;;;;;;3.83;3.08;;;;;;;15.26;65.76;94686.00;5006605;28;20188;-75
2023/05/29 01:58:07;;;;;;;5.03;3.30;;;;;;;15.19;65.93;94683.31;5004538;28;20317;-75
2023/05/29 02:00:33;;;;;;;3.58;3.28;;;;;;;15.20;65.95;94678.81;5009780;28;20235;-73
2023/05/29 02:02:58;;;;;;;3.45;3.15;;;;;;;15.25;65.91;94676.44;5002533;28;20249;-73
2023/05/29 02:05:24;;;;;;;3.70;3.00;;;;;;;15.22;65.62;94677.63;5009140;28;20214;-73
2023/05/29 02:07:49;;;;;;;4.25;3.28;;;;;;;15.22;65.92;94682.94;5000357;28;20249;-73
2023/05/29 02:10:15;;;;;;;3.65;3.28;;;;;;;15.27;65.44;94682.38;5017322;28;20488;-72
2023/05/29 02:12:40;;;;;;;3.38;2.90;;;;;;;15.27;65.65;94682.38;5020910;28;20747;-73
2023/05/29 02:15:07;;;;;;;3.55;3.22;;;;;;;15.28;65.40;94680.53;5006323;28;20711;-75
2023/05/29 02:17:33;;;;;;;4.45;3.40;;;;;;;15.26;65.28;94675.41;5004096;28;20294;-75
2023/05/29 02:19:59;;;;;;;4.53;3.67;;;;;;;15.17;65.58;94674.72;5006842;28;20238;-74
2023/05/29 02:22:24;;;;;;;4.00;3.60;;;;;;;15.12;65.73;94669.19;5008627;28;20290;-75
2023/05/29 02:24:50;;;;;;;3.10;2.80;;;;;;;15.09;66.38;94663.44;5012094;28;20223;-75
2023/05/29 02:27:15;;;;;;;3.65;3.00;;;;;;;15.12;66.05;94673.66;5008289;28;20223;-75
2023/05/29 02:29:41;;;;;;;4.07;3.67;;;;;;;15.16;66.19;94667.81;5005143;28;20227;-71
2023/05/29 02:32:06;;;;;;;3.45;3.15;;;;;;;15.18;65.87;94675.53;5009428;28;20238;-70
2023/05/29 02:34:32;;;;;;;3.50;3.20;;;;;;;15.20;65.93;94678.81;4968767;28;1147122;-71
2023/05/29 02:36:57;;;;;;;4.43;3.50;;;;;;;15.20;65.78;94676.19;5008161;28;20215;-72
2023/05/29 02:39:23;;;;;;;3.50;3.20;;;;;;;15.19;66.24;94682.50;5001495;28;20239;-70
2023/05/29 02:41:48;;;;;;;4.30;3.05;;;;;;;15.15;65.93;94676.75;5005579;28;20233;-69
2023/05/29 02:44:14;;;;;;;3.35;2.72;;;;;;;15.12;66.13;94679.78;5005831;28;20278;-69
2023/05/29 02:46:39;;;;;;;4.55;3.42;;;;;;;15.02;66.43;94683.72;5007400;28;20576;-69
2023/05/29 02:49:05;;;;;;;4.35;3.17;;;;;;;15.02;66.45;94684.53;5001669;28;20230;-69
2023/05/29 02:51:32;;;;;;;4.63;3.45;;;;;;;15.03;66.68;94688.03;5008270;28;20305;-69
2023/05/29 02:53:57;;;;;;;4.25;3.55;;;;;;;14.94;66.98;94682.84;5002607;28;20215;-68
2023/05/29 02:56:23;;;;;;;3.95;2.80;;;;;;;14.95;67.08;94681.03;5006060;28;20187;-69
2023/05/29 02:58:50;;;;;;;3.78;3.15;;;;;;;14.97;67.05;94685.13;5008000;28;20265;-69
2023/05/29 03:01:16;;;;;;;6.38;3.58;;;;;;;14.97;66.88;94690.41;5007112;28;20274;-73
2023/05/29 03:03:41;;;;;;;3.50;3.20;;;;;;;15.00;66.90;94684.75;5014921;28;20768;-72
2023/05/29 03:06:07;;;;;;;3.67;3.30;;;;;;;15.00;66.88;94683.94;5005787;28;20653;-71
2023/05/29 03:08:35;;;;;;;4.25;3.15;;;;;;;15.04;66.87;94687.81;5008591;28;20197;-71
2023/05/29 03:11:00;;;;;;;4.53;3.42;;;;;;;15.13;66.84;94685.88;5003457;28;20603;-71
2023/05/29 03:13:25;;;;;;;3.78;3.38;;;;;;;15.25;66.64;94691.53;5003309;28;20219;-71
2023/05/29 03:15:51;;;;;;;4.82;3.67;;;;;;;15.28;66.26;94688.50;5006001;28;20226;-71
2023/05/29 03:18:16;;;;;;;4.13;3.45;;;;;;;15.27;66.79;94687.69;5006540;28;20219;-71
2023/05/29 03:20:42;;;;;;;4.45;3.60;;;;;;;15.26;66.97;94691.31;5004052;28;20222;-74
2023/05/29 03:23:07;;;;;;;5.07;3.35;;;;;;;15.35;66.85;94690.19;5004968;28;20186;-72
2023/05/29 03:25:32;;;;;;;4.95;3.55;;;;;;;15.36;66.64;94685.72;5007007;28;20223;-68
2023/05/29 03:27:58;;;;;;;3.70;3.00;;;;;;;15.34;67.04;94691.22;5008379;28;20305;-69
2023/05/29 03:30:23;;;;;;;4.57;3.47;;;;;;;15.35;66.72;94692.84;5006762;28;20223;-68
2023/05/29 03:32:49;;;;;;;5.53;3.95;;;;;;;15.31;66.54;94698.69;5008587;28;20239;-71
2023/05/29 03:35:14;;;;;;;4.07;3.67;;;;;;;15.42;66.23;94700.84;5005523;28;20721;-73
2023/05/29 03:37:40;;;;;;;3.85;3.38;;;;;;;15.43;66.18;94700.66;5007868;28;20211;-74
2023/05/29 03:40:05;;;;;;;4.57;3.80;;;;;;;15.46;66.24;94704.78;5006860;28;20223;-69
2023/05/29 03:42:32;;;;;;;5.10;3.92;;;;;;;15.44;66.36;94715.53;5004519;28;20298;-74
2023/05/29 03:44:57;;;;;;;7.05;3.70;;;;;;;15.52;66.11;94724.38;5004658;28;20223;-69
2023/05/29 03:47:23;;;;;;;6.07;4.20;;;;;;;15.55;66.15;94718.69;5005744;28;20178;-70
2023/05/29 03:49:48;;;;;;;5.10;3.53;;;;;;;15.53;66.32;94723.38;5006887;28;20179;-72
2023/05/29 03:52:14;;;;;;;4.28;3.83;;;;;;;15.43;66.96;94713.91;5002274;28;20217;-72
2023/05/29 03:54:39;;;;;;;4.43;3.80;;;;;;;15.51;66.81;94717.47;5001879;28;20227;-73
2023/05/29 03:57:06;;;;;;;5.68;3.78;;;;;;;15.44;67.01;94717.38;5007757;28;20313;-73
2023/05/29 03:59:32;;;;;;;6.72;3.88;;;;;;;15.54;66.90;94717.06;5005790;28;20195;-74
2023/05/29 04:01:57;;;;;;;5.13;3.95;;;;;;;15.63;66.86;94724.69;5008077;28;20897;-69
2023/05/29 04:04:23;;;;;;;5.85;4.65;;;;;;;15.69;66.56;94709.91;5004156;28;20229;-73
2023/05/29 04:06:48;;;;;;;7.95;5.22;;;;;;;15.75;66.44;94725.06;5005892;28;20234;-73
2023/05/29 04:09:14;;;;;;;5.72;4.63;;;;;;;15.82;66.33;94720.63;5006470;28;21223;-72
2023/05/29 04:11:41;;;;;;;5.65;4.53;;;;;;;15.90;66.18;94722.31;5007145;28;20309;-73
2023/05/29 04:14:07;;;;;;;7.28;5.30;;;;;;;15.97;65.88;94728.50;5009811;28;20573;-73
2023/05/29 04:16:32;;;;;;;7.47;4.50;;;;;;;16.01;65.84;94732.41;5007589;28;20222;-68
2023/05/29 04:18:57;;;;;;;5.68;4.47;;;;;;;15.97;66.88;94732.97;5004745;28;20238;-72
2023/05/29 04:21:23;;;;;;;4.60;4.03;;;;;;;15.89;67.13;94733.94;5003642;28;20233;-73
2023/05/29 04:23:48;;;;;;;6.10;4.03;;;;;;;15.69;68.24;94732.94;5008124;28;20237;-70
2023/05/29 04:26:14;;;;;;;7.65;4.53;;;;;;;15.55;69.33;94740.72;5006480;28;20247;-73
2023/05/29 04:28:39;;;;;;;7.15;4.75;;;;;;;15.47;69.58;94737.38;5003947;28;20293;-72
2023/05/29 04:31:08;;;;;;;5.05;4.45;;;;;;;15.56;68.99;94733.63;5013910;28;20353;-74
2023/05/29 04:33:36;;;;;;;5.57;4.25;;;;;;;15.78;68.65;94721.19;4993414;28;20318;-73
2023/05/29 04:36:03;;;;;;;5.05;4.28;;;;;;;15.92;68.32;94730.06;5007596;28;20222;-73
2023/05/29 04:38:29;;;;;;;5.45;4.38;;;;;;;16.06;67.80;94731.81;5003856;28;20192;-71
2023/05/29 04:40:58;;;;;;;4.65;3.78;;;;;;;16.15;67.56;94740.47;5006953;28;20198;-70
2023/05/29 04:43:26;;;;;;;6.20;4.35;;;;;;;16.22;67.22;94733.34;5006374;28;20286;-70
2023/05/29 04:45:52;;;;;;;6.55;4.18;;;;;;;16.40;66.70;94738.19;4999685;28;20548;-74
2023/05/29 04:48:18;;;;;;;4.97;4.13;;;;;;;16.51;66.50;94740.28;5002844;28;20227;-72
2023/05/29 04:50:44;;;;;;;5.10;3.72;;;;;;;16.67;65.28;94739.97;5002339;28;20282;-73
2023/05/29 04:53:10;;;;;;;6.18;4.10;;;;;;;16.71;64.87;94738.56;5005389;28;20207;-71
2023/05/29 04:55:36;;;;;;;6.25;5.47;;;;;;;16.73;65.68;94749.81;5002271;28;20211;-72
2023/05/29 04:58:02;;;;;;;6.32;4.63;;;;;;;16.84;65.08;94750.28;5001410;28;20730;-72
2023/05/29 05:00:27;;;;;;;6.25;4.85;;;;;;;16.47;66.21;94755.78;5005341;28;20231;-72
2023/05/29 05:02:53;;;;;;;6.38;4.80;;;;;;;16.54;66.22;94756.66;5001829;28;20226;-70
2023/05/29 05:05:18;;;;;;;6.57;4.57;;;;;;;16.73;65.58;94759.59;5007538;28;20245;-70
2023/05/29 05:07:43;;;;;;;5.57;4.68;;;;;;;16.96;64.53;94760.16;5009156;28;20646;-70
2023/05/29 05:10:09;;;;;;;4.57;3.75;;;;;;;16.93;64.64;94760.56;5005616;28;20357;-73
2023/05/29 05:12:35;;;;;;;5.78;3.50;;;;;;;17.10;63.90;94763.69;5011014;28;20306;-73
2023/05/29 05:15:00;;;;;;;5.15;3.60;;;;;;;17.28;63.88;94783.59;5010452;28;20292;-71
2023/05/29 05:17:25;;;;;;;4.70;3.83;;;;;;;17.46;63.13;94773.25;5008218;28;20194;-72
2023/05/29 05:19:53;;;;;;;5.63;4.10;;;;;;;17.55;62.52;94769.38;5004408;28;20207;-71
2023/05/29 05:22:19;;;;;;;4.28;3.60;;;;;;;17.64;62.28;94778.81;5004659;28;20223;-75
2023/05/29 05:24:44;;;;;;;3.65;3.35;;;;;;;17.61;61.70;94765.94;5005010;28;20238;-72
2023/05/29 05:27:10;;;;;;;5.50;3.58;;;;;;;17.63;62.36;94763.03;5007896;28;20229;-71
2023/05/29 05:29:35;;;;;;;5.82;3.78;;;;;;;17.58;62.34;94768.97;5006466;28;20250;-74
2023/05/29 05:32:01;;;;;;;5.35;3.60;;;;;;;17.61;62.61;94765.94;4999243;28;20240;-75
2023/05/29 05:34:26;;;;;;;5.50;3.95;;;;;;;17.71;62.48;94778.00;5006911;28;20234;-71
2023/05/29 05:36:52;;;;;;;4.75;3.90;;;;;;;17.78;62.17;94771.69;5005484;28;20293;-73
2023/05/29 05:39:17;;;;;;;3.90;3.22;;;;;;;17.89;61.33;94767.63;4998163;28;20734;-75
2023/05/29 05:41:43;;;;;;;4.50;3.80;;;;;;;18.07;60.81;94770.50;5004550;28;20226;-75
2023/05/29 05:44:08;;;;;;;3.33;2.97;;;;;;;18.06;60.91;94774.19;5007079;28;20273;-73
2023/05/29 05:46:33;;;;;;;3.42;2.75;;;;;;;18.17;60.99;94769.28;4999143;28;20219;-73
2023/05/29 05:49:00;;;;;;;3.83;3.10;;;;;;;18.26;60.55;94771.53;5005950;28;20229;-72
2023/05/29 05:51:26;;;;;;;3.75;2.88;;;;;;;18.25;59.72;94771.72;5004463;28;20219;-75
2023/05/29 05:53:52;;;;;;;3.35;2.55;;;;;;;18.27;59.54;94764.38;5002670;28;20227;-74
2023/05/29 05:56:17;;;;;;;3.78;2.78;;;;;;;18.24;60.28;94773.56;5001071;28;20187;-73
2023/05/29 05:58:43;;;;;;;3.75;3.17;;;;;;;18.23;59.83;94773.78;4998240;28;20250;-73
2023/05/29 06:01:08;;;;;;;3.53;2.80;;;;;;;18.24;59.67;94773.56;4996571;28;20227;-73
2023/05/29 06:03:34;;;;;;;3.33;3.03;;;;;;;17.96;60.02;94764.97;5005330;28;20223;-73
2023/05/29 06:06:00;;;;;;;3.75;2.72;;;;;;;17.91;60.65;94776.22;5003729;28;20230;-74
2023/05/29 06:08:26;;;;;;;4.60;2.88;;;;;;;18.16;60.23;94768.47;5004581;28;20235;-74
2023/05/29 06:10:52;;;;;;;2.70;2.38;;;;;;;18.21;60.34;94766.00;5006687;28;20660;-74
2023/05/29 06:13:17;;;;;;;3.10;2.42;;;;;;;18.13;60.09;94773.38;5000275;28;20254;-73
2023/05/29 06:15:43;;;;;;;3.22;2.47;;;;;;;18.14;60.67;94773.16;4997186;28;20223;-73
2023/05/29 06:18:09;;;;;;;2.75;2.50;;;;;;;18.34;60.01;94775.84;5003086;28;20670;-73
2023/05/29 06:20:35;;;;;;;2.83;2.53;;;;;;;18.57;59.18;94785.22;5002509;28;20450;-75
2023/05/29 06:23:00;;;;;;;4.25;2.45;;;;;;;18.69;58.67;94776.41;5003247;28;20194;-74
2023/05/29 06:25:32;;;;;;;2.90;2.30;;;;;;;18.86;58.02;94784.78;5006721;28;20745;-73
2023/05/29 06:27:59;;;;;;;3.35;2.65;;;;;;;18.79;58.27;94783.16;5004912;28;20273;-68
2023/05/29 06:30:24;;;;;;;3.17;2.60;;;;;;;18.87;57.87;94783.78;4997188;28;20331;-70
2023/05/29 06:32:49;;;;;;;2.50;2.30;;;;;;;18.85;57.76;94788.50;4981592;28;20277;-71
2023/05/29 06:35:15;;;;;;;2.78;1.98;;;;;;;18.80;58.65;94790.16;4993931;28;20537;-72
2023/05/29 06:37:40;;;;;;;2.90;2.17;;;;;;;19.00;57.74;94776.75;4981520;28;20219;-73
2023/05/29 06:40:06;;;;;;;1.88;1.55;;;;;;;19.25;56.85;94792.91;4996158;28;20230;-74
2023/05/29 06:42:32;;;;;;;3.78;1.50;;;;;;;19.47;56.04;94786.22;4977119;28;20220;-72
2023/05/29 06:44:57;;;;;;;1.67;1.52;;;;;;;19.35;56.12;94780.75;4981101;28;20223;-72
2023/05/29 06:47:23;;;;;;;2.20;1.80;;;;;;;19.47;56.04;94772.91;4979856;28;20203;-74
2023/05/29 06:49:48;;;;;;;1.90;1.75;;;;;;;19.68;55.47;94782.47;4994105;28;20184;-74
2023/05/29 06:52:14;;;;;;;1.33;1.23;;;;;;;19.49;54.03;94784.16;4977577;28;20215;-74
2023/05/29 06:54:40;;;;;;;1.30;1.20;;;;;;;19.40;54.81;94782.75;4981543;28;20216;-74
2023/05/29 06:57:05;;;;;;;1.27;1.20;;;;;;;19.55;54.84;94787.84;4981164;28;20219;-70
2023/05/29 06:59:30;;;;;;;2.55;1.20;;;;;;;19.81;54.20;94782.38;4983951;28;20179;-69
2023/05/29 07:01:56;;;;;;;1.27;1.00;;;;;;;19.80;53.92;94785.25;4996299;28;20579;-77
2023/05/29 07:04:21;;;;;;;2.40;1.38;;;;;;;19.72;53.77;94788.19;4976523;28;20220;-73
2023/05/29 07:06:47;;;;;;;1.20;1.10;;;;;;;19.68;54.28;94781.66;4992482;28;21285;-73
2023/05/29 07:09:13;;;;;;;1.58;1.40;;;;;;;19.73;54.12;94789.84;4978344;28;20257;-74
2023/05/29 07:11:38;;;;;;;1.52;1.35;;;;;;;19.90;53.92;94788.28;4979111;28;20223;-74
2023/05/29 07:14:04;;;;;;;1.60;1.50;;;;;;;20.07;53.52;94782.41;4982296;28;20287;-74
2023/05/29 07:16:29;;;;;;;1.60;1.48;;;;;;;20.25;53.37;94785.97;4979747;28;20310;-74
2023/05/29 07:18:55;;;;;;;1.60;1.50;;;;;;;20.13;53.82;94792.22;4993123;28;20228;-74
2023/05/29 07:21:20;;;;;;;1.88;1.52;;;;;;;20.14;53.09;94784.00;4979063;28;20257;-74
2023/05/29 07:23:45;;;;;;;1.77;1.67;;;;;;;19.91;52.94;94789.09;4982786;28;20286;-73
2023/05/29 07:26:11;;;;;;;2.30;1.55;;;;;;;19.98;53.42;94784.53;5000088;28;20187;-75
2023/05/29 07:28:36;;;;;;;1.70;1.60;;;;;;;19.89;53.10;94780.47;4999511;28;20226;-71
2023/05/29 07:31:02;;;;;;;2.05;1.50;;;;;;;20.13;52.87;94793.06;5002492;28;20219;-73
2023/05/29 07:33:27;;;;;;;2.30;1.65;;;;;;;19.68;53.41;94782.47;4999694;28;20235;-73
2023/05/29 07:35:53;;;;;;;1.27;1.17;;;;;;;19.85;53.37;94787.28;4999564;28;20848;-74
2023/05/29 07:38:18;;;;;;;1.42;1.33;;;;;;;19.95;52.77;94792.97;4994683;28;20888;-73
2023/05/29 07:40:44;;;;;;;2.00;1.77;;;;;;;19.96;52.83;94783.94;4997174;28;20219;-75
2023/05/29 07:43:10;;;;;;;2.13;1.90;;;;;;;20.05;52.77;94785.31;5004642;28;20214;-75
2023/05/29 07:45:35;;;;;;;1.50;1.40;;;;;;;20.17;53.03;94788.91;5004754;28;20318;-76
2023/05/29 07:48:01;;;;;;;1.50;1.40;;;;;;;20.15;51.61;94790.97;5000241;28;20227;-76
2023/05/29 07:50:26;;;;;;;1.42;1.33;;;;;;;20.14;51.98;94783.19;5004457;28;20190;-76
2023/05/29 07:52:52;;;;;;;1.40;1.30;;;;;;;20.36;51.07;94788.97;5000816;28;20309;-76
2023/05/29 07:55:17;;;;;;;1.80;1.70;;;;;;;20.64;50.80;94772.53;5007659;28;20226;-74
2023/05/29 07:57:43;;;;;;;1.70;1.60;;;;;;;20.72;50.45;94777.59;5003136;28;20235;-74
2023/05/29 08:00:13;;;;;;;2.13;1.92;;;;;;;21.03;50.63;94771.28;5002101;28;20714;-77
2023/05/29 08:02:38;;;;;;;1.85;1.60;;;;;;;20.99;50.75;94774.66;5008501;28;21504;-73
2023/05/29 08:05:04;;;;;;;1.73;1.48;;;;;;;20.74;51.13;94774.69;5002079;28;20306;-73
2023/05/29 08:07:30;;;;;;;1.85;1.60;;;;;;;20.53;51.86;94771.38;5009529;28;20215;-74
2023/05/29 08:09:55;;;;;;;1.98;1.52;;;;;;;20.42;51.99;94780.09;5005763;28;20242;-74
2023/05/29 08:12:21;;;;;;;2.13;1.92;;;;;;;20.45;51.78;94779.66;5002772;28;20250;-73
2023/05/29 08:14:47;;;;;;;2.35;2.15;;;;;;;20.47;51.96;94774.91;5002224;28;20706;-76
2023/05/29 08:17:12;;;;;;;4.07;2.53;;;;;;;20.50;52.40;94782.47;4992496;28;20194;-73
2023/05/29 08:19:37;;;;;;;3.20;2.90;;;;;;;20.68;51.73;94784.41;4996657;28;20232;-74
2023/05/29 08:22:03;;;;;;;2.00;1.70;;;;;;;20.56;51.84;94781.66;5001895;28;20214;-72
2023/05/29 08:24:28;;;;;;;1.40;1.30;;;;;;;20.58;51.32;94779.59;5004384;28;20246;-74
2023/05/29 08:26:54;;;;;;;1.70;1.60;;;;;;;20.67;52.22;94783.59;5006936;28;20253;-73
2023/05/29 08:29:19;;;;;;;2.22;2.03;;;;;;;20.74;51.32;94785.38;4999425;28;20191;-72
2023/05/29 08:31:45;;;;;;;2.03;1.83;;;;;;;20.75;51.19;94787.84;5001106;28;20199;-73
2023/05/29 08:34:11;;;;;;;1.95;1.85;;;;;;;20.91;52.19;94789.13;4999605;28;20277;-73
2023/05/29 08:36:37;;;;;;;2.00;1.80;;;;;;;21.04;51.63;94789.00;5001162;28;20222;-73
2023/05/29 08:39:02;;;;;;;1.63;1.52;;;;;;;20.97;51.35;94793.56;5001772;28;20703;-70
2023/05/29 08:41:55;;;;;;;2.00;1.80;;;;;;;20.88;50.95;94785.03;5000280;28;20203;-74
2023/05/29 08:44:22;;;;;;;1.77;1.58;;;;;;;20.80;50.32;94781.84;5005934;28;20651;-75
2023/05/29 08:46:54;;;;;;;1.75;1.65;;;;;;;20.83;50.30;94781.41;5003703;28;20278;-76
2023/05/29 08:49:22;;;;;;;2.63;1.55;;;;;;;21.01;49.80;94765.38;5007593;28;20872;-72
2023/05/29 08:51:54;;;;;;;1.92;1.73;;;;;;;21.01;48.61;94761.88;5007107;28;20222;-72
2023/05/29 08:54:20;;;;;;;2.28;1.80;;;;;;;21.02;47.81;94766.19;5009665;28;20268;-72
2023/05/29 08:56:45;;;;;;;2.40;1.92;;;;;;;21.26;47.19;94767.97;5008127;28;20231;-72
2023/05/29 08:59:12;;;;;;;1.65;1.55;;;;;;;20.86;47.71;94770.25;5008150;28;20190;-73
2023/05/29 09:01:38;;;;;;;2.38;1.70;;;;;;;20.78;49.22;94760.69;5008796;28;20234;-72
2023/05/29 09:04:04;;;;;;;1.60;1.50;;;;;;;20.75;49.56;94760.31;5008777;28;20231;-73
2023/05/29 09:06:30;;;;;;;2.08;1.92;;;;;;;20.92;48.91;94758.69;5009547;28;20868;-72
2023/05/29 09:08:57;;;;;;;1.98;1.85;;;;;;;20.98;48.23;94754.28;5009881;28;20234;-72
2023/05/29 09:11:23;;;;;;;2.30;2.10;;;;;;;21.14;47.30;94754.53;5004716;28;20205;-72
2023/05/29 09:13:48;;;;;;;2.17;1.92;;;;;;;21.35;46.51;94752.41;5006595;28;20670;-72
2023/05/29 09:16:16;;;;;;;1.88;1.77;;;;;;;21.37;46.54;94750.34;5004736;28;20234;-72
2023/05/29 09:18:45;;;;;;;2.00;1.77;;;;;;;21.41;45.72;94751.56;5008141;28;20227;-72
2023/05/29 09:21:24;;;;;;;2.10;1.90;;;;;;;21.07;47.47;94742.28;5007490;28;20231;-73
2023/05/29 09:23:52;;;;;;;2.17;1.98;;;;;;;21.18;48.05;94740.72;5008746;28;20317;-73
2023/05/29 09:26:17;;;;;;;2.58;2.38;;;;;;;21.43;47.04;94736.09;5003923;28;20258;-72
2023/05/29 09:28:45;;;;;;;2.45;2.25;;;;;;;21.68;45.88;94729.78;5010391;28;20201;-73
2023/05/29 09:31:16;;;;;;;2.10;2.00;;;;;;;21.93;44.97;94727.78;5008055;28;20258;-72
2023/05/29 09:33:50;;;;;;;3.75;1.92;;;;;;;22.07;44.13;94730.25;5007464;28;20651;-69
2023/05/29 09:36:22;;;;;;;2.00;1.80;;;;;;;22.07;44.03;94725.69;5000947;28;20248;-69
2023/05/29 09:38:48;;;;;;;2.55;1.88;;;;;;;22.09;44.50;94723.63;5007292;28;20220;-66
2023/05/29 09:41:20;;;;;;;2.20;2.00;;;;;;;22.15;43.07;94727.22;5010131;28;20202;-67
2023/05/29 09:43:46;;;;;;;2.10;1.90;;;;;;;21.98;44.00;94719.88;5006743;28;20302;-72
2023/05/29 09:46:17;;;;;;;1.92;1.83;;;;;;;21.97;44.40;94720.94;5008120;28;20301;-73
2023/05/29 09:48:42;;;;;;;2.15;1.95;;;;;;;21.96;45.03;94715.78;5009025;28;20223;-74
2023/05/29 09:51:20;;;;;;;1.90;1.80;;;;;;;21.83;44.29;94711.44;5007828;28;20216;-73
2023/05/29 09:53:46;;;;;;;2.30;2.10;;;;;;;21.87;44.34;94707.28;5000508;28;20247;-72
2023/05/29 09:56:15;;;;;;;2.00;1.90;;;;;;;21.67;44.80;94709.44;5005278;28;20221;-72
2023/05/29 09:58:45;;;;;;;2.50;2.30;;;;;;;21.66;45.72;94711.28;5005629;28;21075;-72
2023/05/29 10:01:12;;;;;;;2.35;1.92;;;;;;;21.67;45.10;94701.41;5004903;28;20223;-73
2023/05/29 10:03:38;;;;;;;2.10;2.00;;;;;;;21.71;44.42;94702.59;5005792;28;20223;-68
2023/05/29 10:06:05;;;;;;;1.73;1.63;;;;;;;21.57;43.90;94700.09;5007267;28;20218;-70
2023/05/29 10:08:33;;;;;;;1.80;1.70;;;;;;;21.46;45.26;94700.06;5004569;28;20207;-69
2023/05/29 10:11:01;;;;;;;1.85;1.75;;;;;;;21.68;45.86;94698.50;5009318;28;20643;-69
2023/05/29 10:13:31;;;;;;;2.17;2.00;;;;;;;22.06;45.40;94696.50;5004199;28;20703;-68
2023/05/29 10:15:58;;;;;;;1.80;1.60;;;;;;;22.32;43.69;94703.28;5012768;28;20218;-69
2023/05/29 10:18:26;;;;;;;2.10;1.90;;;;;;;22.15;43.16;94709.28;5006706;28;20223;-69
2023/05/29 10:20:55;;;;;;;1.98;1.85;;;;;;;22.26;42.84;94704.22;5007723;28;20630;-69
2023/05/29 10:23:25;;;;;;;1.77;1.67;;;;;;;22.22;42.48;94698.53;5007661;28;20197;-72
2023/05/29 10:26:04;;;;;;;2.22;2.03;;;;;;;22.21;42.61;94692.34;5007219;28;20300;-70
2023/05/29 10:28:30;;;;;;;2.63;2.42;;;;;;;22.18;41.81;94700.81;5006449;28;20284;-70
2023/05/29 10:31:18;;;;;;;3.58;2.40;;;;;;;22.13;43.25;94694.50;5001414;28;20294;-69
2023/05/29 10:34:02;;;;;;;2.85;2.55;;;;;;;22.21;43.48;94691.50;5007272;28;20265;-73
2023/05/29 10:36:42;;;;;;;2.75;1.92;;;;;;;22.38;43.69;94697.81;5001958;28;20262;-72
2023/05/29 10:39:08;;;;;;;2.22;1.90;;;;;;;22.35;42.36;94698.28;5001305;28;20619;-73
2023/05/29 10:41:39;;;;;;;2.05;1.95;;;;;;;22.43;42.22;94695.25;5005534;28;20257;-72
2023/05/29 10:44:30;;;;;;;2.13;1.92;;;;;;;22.49;42.29;94698.06;5007034;28;20278;-72
2023/05/29 10:46:58;;;;;;;2.55;2.20;;;;;;;22.51;41.73;94691.41;4998886;28;20226;-72
2023/05/29 10:49:23;;;;;;;2.53;1.77;;;;;;;22.44;42.25;94688.03;5004846;28;20226;-73
2023/05/29 10:51:49;;;;;;;1.88;1.77;;;;;;;22.41;43.21;94694.69;5009299;28;20223;-73
2023/05/29 10:54:19;;;;;;;1.80;1.50;;;;;;;22.25;42.04;94681.97;5002185;28;20301;-72
2023/05/29 10:56:52;;;;;;;1.98;1.88;;;;;;;22.13;42.96;94686.47;5007909;28;20229;-73
2023/05/29 10:59:18;;;;;;;2.55;1.92;;;;;;;22.01;44.31;94676.56;5008974;28;20269;-73
2023/05/29 11:01:43;;;;;;;1.98;1.88;;;;;;;21.85;44.08;94674.56;5007361;28;20302;-74
2023/05/29 11:04:15;;;;;;;2.83;2.33;;;;;;;21.82;45.24;94675.03;5006260;28;20324;-72
2023/05/29 11:06:41;;;;;;;2.58;2.38;;;;;;;21.69;45.43;94672.56;5002951;28;20223;-77
2023/05/29 11:09:30;;;;;;;2.05;1.90;;;;;;;21.79;44.85;94662.13;5000783;28;20215;-75
2023/05/29 11:12:25;;;;;;;1.85;1.60;;;;;;;22.15;44.92;94660.28;5005373;28;20227;-76
2023/05/29 11:15:03;;;;;;;3.05;2.40;;;;;;;22.57;43.18;94668.22;5006971;28;20301;-68
2023/05/29 11:17:42;;;;;;;2.90;2.10;;;;;;;22.91;42.36;94671.91;5002698;28;20202;-68
2023/05/29 11:20:09;;;;;;;2.25;1.98;;;;;;;22.79;41.87;94658.50;5007305;28;20199;-68
2023/05/29 11:23:00;;;;;;;2.30;2.10;;;;;;;22.59;42.25;94656.22;5003507;28;20250;-68
2023/05/29 11:25:26;;;;;;;2.80;2.03;;;;;;;22.75;42.79;94660.06;5004875;28;20305;-68
2023/05/29 11:27:52;;;;;;;2.83;2.30;;;;;;;22.92;42.35;94653.94;5000380;28;20319;-68
2023/05/29 11:30:18;;;;;;;2.35;2.00;;;;;;;23.24;42.15;94663.19;5007208;28;20297;-68
2023/05/29 11:32:46;;;;;;;2.47;2.28;;;;;;;23.40;41.13;94660.81;5001291;28;20242;-68
2023/05/29 11:35:13;;;;;;;2.08;1.90;;;;;;;23.41;40.48;94657.88;5000550;28;20179;-68